sensor_id;sensor_type;location;lat;lon;timestamp;temperature;humidity
6752;DHT22;3413;47.680;9.166;2023-02-18T00:04:55;14.50;99.90
6752;DHT22;3413;47.680;9.166;2023-02-18T00:09:57;14.50;99.90
6752;DHT22;3413;47.680;9.166;2023-02-18T00:14:59;14.60;99.90
6752;DHT22;3413;47.680;9.166;2023-02-18T00:20:01;14.60;99.90
6752;DHT22;3413;47.680;9.166;2023-02-18T00:25:03;14.70;99.90
6752;DHT22;3413;47.680;9.166;2023-02-18T00:30:05;14.70;99.90
6752;DHT22;3413;47.680;9.166;2023-02-18T00:35:08;14.70;99.90
6752;DHT22;3413;47.680;9.166;2023-02-18T00:40:10;14.70;99.90
6752;DHT22;3413;47.680;9.166;2023-02-18T00:45:12;14.70;99.90
6752;DHT22;3413;47.680;9.166;2023-02-18T00:50:14;14.70;99.90
6752;DHT22;3413;47.680;9.166;2023-02-18T00:55:16;14.70;99.90
6752;DHT22;3413;47.680;9.166;2023-02-18T01:00:18;14.60;99.90
6752;DHT22;3413;47.680;9.166;2023-02-18T01:05:20;14.60;99.90
6752;DHT22;3413;47.680;9.166;2023-02-18T01:10:22;14.60;99.90
6752;DHT22;3413;47.680;9.166;2023-02-18T01:15:24;14.60;99.90
6752;DHT22;3413;47.680;9.166;2023-02-18T01:20:26;14.60;99.90
6752;DHT22;3413;47.680;9.166;2023-02-18T01:25:28;14.60;99.90
6752;DHT22;3413;47.680;9.166;2023-02-18T01:30:30;14.70;99.90
6752;DHT22;3413;47.680;9.166;2023-02-18T01:35:32;14.70;99.90
6752;DHT22;3413;47.680;9.166;2023-02-18T01:40:35;14.80;99.90
6752;DHT22;3413;47.680;9.166;2023-02-18T01:45:51;14.80;99.90
6752;DHT22;3413;47.680;9.166;2023-02-18T01:51:08;14.80;99.90
6752;DHT22;3413;47.680;9.166;2023-02-18T01:56:18;14.80;99.90
6752;DHT22;3413;47.680;9.166;2023-02-18T02:01:23;14.70;99.90
6752;DHT22;3413;47.680;9.166;2023-02-18T02:06:26;14.70;99.90
6752;DHT22;3413;47.680;9.166;2023-02-18T02:11:50;14.70;99.90
6752;DHT22;3413;47.680;9.166;2023-02-18T02:27:22;14.70;99.90
6752;DHT22;3413;47.680;9.166;2023-02-18T02:38:09;14.50;99.90
6752;DHT22;3413;47.680;9.166;2023-02-18T02:48:44;14.50;99.90
6752;DHT22;3413;47.680;9.166;2023-02-18T02:53:48;14.50;99.90
6752;DHT22;3413;47.680;9.166;2023-02-18T02:59:02;14.50;99.90
6752;DHT22;3413;47.680;9.166;2023-02-18T03:09:27;14.40;99.90
6752;DHT22;3413;47.680;9.166;2023-02-18T03:15:04;14.50;99.90
6752;DHT22;3413;47.680;9.166;2023-02-18T03:25:20;14.40;99.90
6752;DHT22;3413;47.680;9.166;2023-02-18T03:35:44;14.40;99.90
6752;DHT22;3413;47.680;9.166;2023-02-18T03:40:49;14.40;99.90
6752;DHT22;3413;47.680;9.166;2023-02-18T03:45:52;14.50;99.90
6752;DHT22;3413;47.680;9.166;2023-02-18T03:50:54;14.50;99.90
6752;DHT22;3413;47.680;9.166;2023-02-18T03:55:56;14.50;99.90
6752;DHT22;3413;47.680;9.166;2023-02-18T04:00:58;14.50;99.90
6752;DHT22;3413;47.680;9.166;2023-02-18T04:05:59;14.50;99.90
6752;DHT22;3413;47.680;9.166;2023-02-18T04:11:02;14.50;99.90
6752;DHT22;3413;47.680;9.166;2023-02-18T04:16:04;14.40;99.90
6752;DHT22;3413;47.680;9.166;2023-02-18T04:21:06;14.40;99.90
6752;DHT22;3413;47.680;9.166;2023-02-18T04:26:08;14.40;99.90
6752;DHT22;3413;47.680;9.166;2023-02-18T04:37:56;14.30;99.90
6752;DHT22;3413;47.680;9.166;2023-02-18T04:42:59;14.40;99.90
6752;DHT22;3413;47.680;9.166;2023-02-18T04:48:01;14.40;99.90
6752;DHT22;3413;47.680;9.166;2023-02-18T04:53:03;14.40;99.90
6752;DHT22;3413;47.680;9.166;2023-02-18T04:58:05;14.30;99.90
6752;DHT22;3413;47.680;9.166;2023-02-18T05:03:07;14.30;99.90
6752;DHT22;3413;47.680;9.166;2023-02-18T05:08:08;14.30;99.90
6752;DHT22;3413;47.680;9.166;2023-02-18T05:13:10;14.30;99.90
6752;DHT22;3413;47.680;9.166;2023-02-18T05:18:12;14.30;99.90
6752;DHT22;3413;47.680;9.166;2023-02-18T05:23:14;14.30;99.90
6752;DHT22;3413;47.680;9.166;2023-02-18T05:28:16;14.30;99.90
6752;DHT22;3413;47.680;9.166;2023-02-18T05:33:18;14.30;99.90
6752;DHT22;3413;47.680;9.166;2023-02-18T05:38:19;14.30;99.90
6752;DHT22;3413;47.680;9.166;2023-02-18T05:43:21;14.40;99.90
6752;DHT22;3413;47.680;9.166;2023-02-18T05:48:23;14.40;99.90
6752;DHT22;3413;47.680;9.166;2023-02-18T05:53:25;14.30;99.90
6752;DHT22;3413;47.680;9.166;2023-02-18T05:58:27;14.30;99.90
6752;DHT22;3413;47.680;9.166;2023-02-18T06:03:29;14.40;99.90
6752;DHT22;3413;47.680;9.166;2023-02-18T06:08:31;14.30;99.90
6752;DHT22;3413;47.680;9.166;2023-02-18T06:13:33;14.40;99.90
6752;DHT22;3413;47.680;9.166;2023-02-18T06:18:35;14.50;99.90
6752;DHT22;3413;47.680;9.166;2023-02-18T06:23:36;14.40;99.90
6752;DHT22;3413;47.680;9.166;2023-02-18T06:28:38;14.30;99.90
6752;DHT22;3413;47.680;9.166;2023-02-18T06:33:40;14.20;99.90
6752;DHT22;3413;47.680;9.166;2023-02-18T06:38:43;14.20;99.90
6752;DHT22;3413;47.680;9.166;2023-02-18T06:43:45;14.30;99.90
6752;DHT22;3413;47.680;9.166;2023-02-18T06:48:47;14.20;99.90
6752;DHT22;3413;47.680;9.166;2023-02-18T06:53:49;14.30;99.90
6752;DHT22;3413;47.680;9.166;2023-02-18T06:58:51;14.20;99.90
6752;DHT22;3413;47.680;9.166;2023-02-18T07:03:53;14.20;99.90
6752;DHT22;3413;47.680;9.166;2023-02-18T07:08:55;14.20;99.90
6752;DHT22;3413;47.680;9.166;2023-02-18T07:13:57;14.20;99.90
6752;DHT22;3413;47.680;9.166;2023-02-18T07:18:58;14.20;99.90
6752;DHT22;3413;47.680;9.166;2023-02-18T07:24:00;14.30;99.90
6752;DHT22;3413;47.680;9.166;2023-02-18T07:29:08;14.30;99.90
6752;DHT22;3413;47.680;9.166;2023-02-18T07:35:12;14.30;99.90
6752;DHT22;3413;47.680;9.166;2023-02-18T07:40:18;14.30;99.90
6752;DHT22;3413;47.680;9.166;2023-02-18T07:45:20;14.40;99.90
6752;DHT22;3413;47.680;9.166;2023-02-18T07:50:22;14.50;99.90
6752;DHT22;3413;47.680;9.166;2023-02-18T07:55:24;14.60;99.90
6752;DHT22;3413;47.680;9.166;2023-02-18T08:00:26;14.70;99.90
6752;DHT22;3413;47.680;9.166;2023-02-18T08:05:27;14.70;99.90
6752;DHT22;3413;47.680;9.166;2023-02-18T08:10:29;14.80;99.90
6752;DHT22;3413;47.680;9.166;2023-02-18T08:15:31;14.90;99.90
6752;DHT22;3413;47.680;9.166;2023-02-18T08:20:37;14.90;99.90
6752;DHT22;3413;47.680;9.166;2023-02-18T08:25:39;14.90;99.90
6752;DHT22;3413;47.680;9.166;2023-02-18T08:30:48;14.90;99.90
6752;DHT22;3413;47.680;9.166;2023-02-18T08:35:52;14.90;99.90
6752;DHT22;3413;47.680;9.166;2023-02-18T08:41:01;14.90;99.90
6752;DHT22;3413;47.680;9.166;2023-02-18T08:46:03;15.00;99.90
6752;DHT22;3413;47.680;9.166;2023-02-18T08:51:14;15.00;99.90
6752;DHT22;3413;47.680;9.166;2023-02-18T08:56:16;15.10;99.90
6752;DHT22;3413;47.680;9.166;2023-02-18T09:01:18;15.10;99.90
6752;DHT22;3413;47.680;9.166;2023-02-18T09:06:21;15.10;99.90
6752;DHT22;3413;47.680;9.166;2023-02-18T09:11:23;15.00;99.90
6752;DHT22;3413;47.680;9.166;2023-02-18T09:16:25;15.10;99.90
6752;DHT22;3413;47.680;9.166;2023-02-18T09:21:28;15.20;99.90
6752;DHT22;3413;47.680;9.166;2023-02-18T09:26:30;15.20;99.90
6752;DHT22;3413;47.680;9.166;2023-02-18T09:31:32;15.30;99.90
6752;DHT22;3413;47.680;9.166;2023-02-18T09:36:35;15.30;99.90
6752;DHT22;3413;47.680;9.166;2023-02-18T09:41:47;15.30;99.90
6752;DHT22;3413;47.680;9.166;2023-02-18T09:46:58;15.50;99.90
6752;DHT22;3413;47.680;9.166;2023-02-18T09:57:34;15.70;99.90
6752;DHT22;3413;47.680;9.166;2023-02-18T10:02:44;15.90;99.90
6752;DHT22;3413;47.680;9.166;2023-02-18T10:07:54;15.80;99.90
6752;DHT22;3413;47.680;9.166;2023-02-18T10:12:57;15.90;99.90
6752;DHT22;3413;47.680;9.166;2023-02-18T10:17:59;16.00;99.90
6752;DHT22;3413;47.680;9.166;2023-02-18T10:23:03;16.20;99.90
6752;DHT22;3413;47.680;9.166;2023-02-18T10:28:08;16.20;99.90
6752;DHT22;3413;47.680;9.166;2023-02-18T10:54:57;16.20;99.90
6752;DHT22;3413;47.680;9.166;2023-02-18T11:05:23;16.20;99.90
6752;DHT22;3413;47.680;9.166;2023-02-18T11:10:31;16.30;99.90
6752;DHT22;3413;47.680;9.166;2023-02-18T11:15:35;16.40;99.90
6752;DHT22;3413;47.680;9.166;2023-02-18T11:20:38;16.50;99.90
6752;DHT22;3413;47.680;9.166;2023-02-18T11:25:41;16.50;99.90
6752;DHT22;3413;47.680;9.166;2023-02-18T11:30:57;16.50;99.90
6752;DHT22;3413;47.680;9.166;2023-02-18T11:41:20;16.60;99.90
6752;DHT22;3413;47.680;9.166;2023-02-18T11:46:24;16.50;99.90
6752;DHT22;3413;47.680;9.166;2023-02-18T11:51:34;16.50;99.90
6752;DHT22;3413;47.680;9.166;2023-02-18T11:56:37;16.70;99.90
6752;DHT22;3413;47.680;9.166;2023-02-18T12:02:02;16.70;99.90
6752;DHT22;3413;47.680;9.166;2023-02-18T12:07:38;16.90;99.90
6752;DHT22;3413;47.680;9.166;2023-02-18T12:12:49;17.00;99.90
6752;DHT22;3413;47.680;9.166;2023-02-18T12:18:32;17.10;99.90
6752;DHT22;3413;47.680;9.166;2023-02-18T12:29:40;17.10;99.90
6752;DHT22;3413;47.680;9.166;2023-02-18T12:56:11;17.30;99.90
6752;DHT22;3413;47.680;9.166;2023-02-18T13:01:28;17.30;99.90
6752;DHT22;3413;47.680;9.166;2023-02-18T13:17:34;17.40;99.90
6752;DHT22;3413;47.680;9.166;2023-02-18T13:22:37;17.50;99.90
6752;DHT22;3413;47.680;9.166;2023-02-18T13:28:06;17.70;99.90
6752;DHT22;3413;47.680;9.166;2023-02-18T13:33:42;18.00;99.90
6752;DHT22;3413;47.680;9.166;2023-02-18T13:49:23;18.70;99.90
6752;DHT22;3413;47.680;9.166;2023-02-18T13:54:32;18.90;99.90
6752;DHT22;3413;47.680;9.166;2023-02-18T13:59:47;19.10;99.90
6752;DHT22;3413;47.680;9.166;2023-02-18T14:04:56;19.20;99.90
6752;DHT22;3413;47.680;9.166;2023-02-18T14:10:00;19.10;99.90
6752;DHT22;3413;47.680;9.166;2023-02-18T14:25:38;19.10;99.90
6752;DHT22;3413;47.680;9.166;2023-02-18T14:30:41;19.00;99.90
6752;DHT22;3413;47.680;9.166;2023-02-18T14:51:52;19.10;99.90
6752;DHT22;3413;47.680;9.166;2023-02-18T14:57:03;19.00;99.90
6752;DHT22;3413;47.680;9.166;2023-02-18T15:02:25;19.10;99.90
6752;DHT22;3413;47.680;9.166;2023-02-18T15:07:28;19.00;99.90
6752;DHT22;3413;47.680;9.166;2023-02-18T15:12:30;19.00;99.90
6752;DHT22;3413;47.680;9.166;2023-02-18T15:17:32;19.00;99.90
6752;DHT22;3413;47.680;9.166;2023-02-18T15:22:34;18.90;99.90
6752;DHT22;3413;47.680;9.166;2023-02-18T15:27:39;18.80;99.90
6752;DHT22;3413;47.680;9.166;2023-02-18T15:32:49;18.70;99.90
6752;DHT22;3413;47.680;9.166;2023-02-18T15:37:54;18.60;99.90
6752;DHT22;3413;47.680;9.166;2023-02-18T15:42:58;18.50;99.90
6752;DHT22;3413;47.680;9.166;2023-02-18T15:48:01;18.30;99.90
6752;DHT22;3413;47.680;9.166;2023-02-18T15:53:07;18.20;99.90
6752;DHT22;3413;47.680;9.166;2023-02-18T15:58:22;18.20;99.90
6752;DHT22;3413;47.680;9.166;2023-02-18T16:03:28;18.10;99.90
6752;DHT22;3413;47.680;9.166;2023-02-18T16:08:31;18.00;99.90
6752;DHT22;3413;47.680;9.166;2023-02-18T16:13:35;18.00;99.90
6752;DHT22;3413;47.680;9.166;2023-02-18T16:18:39;17.90;99.90
6752;DHT22;3413;47.680;9.166;2023-02-18T16:23:44;17.80;99.90
6752;DHT22;3413;47.680;9.166;2023-02-18T16:28:49;17.70;99.90
6752;DHT22;3413;47.680;9.166;2023-02-18T16:33:51;17.60;99.90
6752;DHT22;3413;47.680;9.166;2023-02-18T16:38:53;17.50;99.90
6752;DHT22;3413;47.680;9.166;2023-02-18T16:43:56;17.40;99.90
6752;DHT22;3413;47.680;9.166;2023-02-18T16:48:57;17.30;99.90
6752;DHT22;3413;47.680;9.166;2023-02-18T16:54:19;17.20;99.90
6752;DHT22;3413;47.680;9.166;2023-02-18T16:59:24;17.10;99.90
6752;DHT22;3413;47.680;9.166;2023-02-18T17:04:26;17.00;99.90
6752;DHT22;3413;47.680;9.166;2023-02-18T17:09:28;16.80;99.90
6752;DHT22;3413;47.680;9.166;2023-02-18T17:14:30;16.80;99.90
6752;DHT22;3413;47.680;9.166;2023-02-18T17:19:32;16.70;99.90
6752;DHT22;3413;47.680;9.166;2023-02-18T17:24:34;16.60;99.90
6752;DHT22;3413;47.680;9.166;2023-02-18T17:29:36;16.50;99.90
6752;DHT22;3413;47.680;9.166;2023-02-18T17:34:38;16.30;99.90
6752;DHT22;3413;47.680;9.166;2023-02-18T17:39:41;16.30;99.90
6752;DHT22;3413;47.680;9.166;2023-02-18T17:44:43;16.20;99.90
6752;DHT22;3413;47.680;9.166;2023-02-18T17:49:45;16.10;99.90
6752;DHT22;3413;47.680;9.166;2023-02-18T17:54:47;16.10;99.90
6752;DHT22;3413;47.680;9.166;2023-02-18T17:59:49;16.00;99.90
6752;DHT22;3413;47.680;9.166;2023-02-18T18:04:50;16.00;99.90
6752;DHT22;3413;47.680;9.166;2023-02-18T18:09:52;15.90;99.90
6752;DHT22;3413;47.680;9.166;2023-02-18T18:14:54;15.90;99.90
6752;DHT22;3413;47.680;9.166;2023-02-18T18:19:56;15.90;99.90
6752;DHT22;3413;47.680;9.166;2023-02-18T18:24:58;15.80;99.90
6752;DHT22;3413;47.680;9.166;2023-02-18T18:30:00;15.70;99.90
6752;DHT22;3413;47.680;9.166;2023-02-18T18:35:02;15.70;99.90
6752;DHT22;3413;47.680;9.166;2023-02-18T18:40:04;15.70;99.90
6752;DHT22;3413;47.680;9.166;2023-02-18T18:50:41;15.50;99.90
6752;DHT22;3413;47.680;9.166;2023-02-18T18:55:43;15.30;99.90
6752;DHT22;3413;47.680;9.166;2023-02-18T19:00:48;15.30;99.90
6752;DHT22;3413;47.680;9.166;2023-02-18T19:05:54;15.20;99.90
6752;DHT22;3413;47.680;9.166;2023-02-18T19:10:56;15.10;99.90
6752;DHT22;3413;47.680;9.166;2023-02-18T19:16:18;15.10;99.90
6752;DHT22;3413;47.680;9.166;2023-02-18T19:21:20;15.20;99.90
6752;DHT22;3413;47.680;9.166;2023-02-18T19:26:22;15.10;99.90
6752;DHT22;3413;47.680;9.166;2023-02-18T19:31:25;15.10;99.90
6752;DHT22;3413;47.680;9.166;2023-02-18T19:36:27;15.00;99.90
6752;DHT22;3413;47.680;9.166;2023-02-18T19:41:29;14.90;99.90
6752;DHT22;3413;47.680;9.166;2023-02-18T19:46:31;15.00;99.90
6752;DHT22;3413;47.680;9.166;2023-02-18T19:51:33;14.90;99.90
6752;DHT22;3413;47.680;9.166;2023-02-18T19:56:34;15.00;99.90
6752;DHT22;3413;47.680;9.166;2023-02-18T20:01:36;15.00;99.90
6752;DHT22;3413;47.680;9.166;2023-02-18T20:06:38;15.00;99.90
6752;DHT22;3413;47.680;9.166;2023-02-18T20:11:40;14.90;99.90
6752;DHT22;3413;47.680;9.166;2023-02-18T20:16:42;14.80;99.90
6752;DHT22;3413;47.680;9.166;2023-02-18T20:21:44;14.70;99.90
6752;DHT22;3413;47.680;9.166;2023-02-18T20:26:46;14.80;99.90
6752;DHT22;3413;47.680;9.166;2023-02-18T20:31:49;14.80;99.90
6752;DHT22;3413;47.680;9.166;2023-02-18T20:36:51;14.70;99.90
6752;DHT22;3413;47.680;9.166;2023-02-18T20:41:53;14.60;99.90
6752;DHT22;3413;47.680;9.166;2023-02-18T20:46:55;14.60;99.90
6752;DHT22;3413;47.680;9.166;2023-02-18T20:51:57;14.50;99.90
6752;DHT22;3413;47.680;9.166;2023-02-18T20:56:59;14.60;99.90
6752;DHT22;3413;47.680;9.166;2023-02-18T21:02:01;14.60;99.80
6752;DHT22;3413;47.680;9.166;2023-02-18T21:07:04;14.60;99.80
6752;DHT22;3413;47.680;9.166;2023-02-18T21:12:06;14.60;99.80
6752;DHT22;3413;47.680;9.166;2023-02-18T21:17:08;14.60;99.80
6752;DHT22;3413;47.680;9.166;2023-02-18T21:22:10;14.70;99.70
6752;DHT22;3413;47.680;9.166;2023-02-18T21:27:12;14.60;99.80
6752;DHT22;3413;47.680;9.166;2023-02-18T21:32:14;14.60;99.70
6752;DHT22;3413;47.680;9.166;2023-02-18T21:37:16;14.40;99.70
6752;DHT22;3413;47.680;9.166;2023-02-18T21:42:18;14.40;99.70
6752;DHT22;3413;47.680;9.166;2023-02-18T21:47:20;14.30;99.70
6752;DHT22;3413;47.680;9.166;2023-02-18T21:52:25;14.30;99.70
6752;DHT22;3413;47.680;9.166;2023-02-18T21:57:27;14.30;99.60
6752;DHT22;3413;47.680;9.166;2023-02-18T22:02:31;14.20;99.60
6752;DHT22;3413;47.680;9.166;2023-02-18T22:07:34;14.30;99.60
6752;DHT22;3413;47.680;9.166;2023-02-18T22:12:35;14.10;99.50
6752;DHT22;3413;47.680;9.166;2023-02-18T22:17:37;14.10;99.50
6752;DHT22;3413;47.680;9.166;2023-02-18T22:22:39;14.00;99.50
6752;DHT22;3413;47.680;9.166;2023-02-18T22:27:41;14.00;99.50
6752;DHT22;3413;47.680;9.166;2023-02-18T22:32:43;14.00;99.50
6752;DHT22;3413;47.680;9.166;2023-02-18T22:37:45;14.00;99.50
6752;DHT22;3413;47.680;9.166;2023-02-18T22:42:47;14.00;99.50
6752;DHT22;3413;47.680;9.166;2023-02-18T22:47:49;14.00;99.50
6752;DHT22;3413;47.680;9.166;2023-02-18T22:52:51;14.00;99.80
6752;DHT22;3413;47.680;9.166;2023-02-18T22:57:52;13.90;99.50
6752;DHT22;3413;47.680;9.166;2023-02-18T23:02:54;13.90;99.50
6752;DHT22;3413;47.680;9.166;2023-02-18T23:07:56;13.90;99.50
6752;DHT22;3413;47.680;9.166;2023-02-18T23:12:58;13.80;99.40
6752;DHT22;3413;47.680;9.166;2023-02-18T23:18:00;13.80;99.40
6752;DHT22;3413;47.680;9.166;2023-02-18T23:23:02;13.80;99.40
6752;DHT22;3413;47.680;9.166;2023-02-18T23:28:04;13.80;99.40
6752;DHT22;3413;47.680;9.166;2023-02-18T23:33:06;13.70;99.40
6752;DHT22;3413;47.680;9.166;2023-02-18T23:38:08;13.70;99.40
6752;DHT22;3413;47.680;9.166;2023-02-18T23:43:10;13.80;99.50
6752;DHT22;3413;47.680;9.166;2023-02-18T23:48:12;13.80;99.40
6752;DHT22;3413;47.680;9.166;2023-02-18T23:53:14;13.70;99.40
6752;DHT22;3413;47.680;9.166;2023-02-18T23:58:16;13.80;99.50
